sensor_id;sensor_type;location;lat;lon;timestamp;P1;durP1;ratioP1;P2;durP2;ratioP2
12165;SDS011;6146;48.128;11.476;2023-05-10T00:00:36;1.57;;;1.47;;
12165;SDS011;6146;48.128;11.476;2023-05-10T00:03:02;1.40;;;1.30;;
12165;SDS011;6146;48.128;11.476;2023-05-10T00:05:29;1.50;;;1.40;;
12165;SDS011;6146;48.128;11.476;2023-05-10T00:07:55;1.80;;;1.20;;
12165;SDS011;6146;48.128;11.476;2023-05-10T00:10:21;1.40;;;1.30;;
12165;SDS011;6146;48.128;11.476;2023-05-10T00:12:46;1.30;;;1.20;;
12165;SDS011;6146;48.128;11.476;2023-05-10T00:15:12;1.87;;;1.57;;
12165;SDS011;6146;48.128;11.476;2023-05-10T00:17:37;1.40;;;1.30;;
12165;SDS011;6146;48.128;11.476;2023-05-10T00:20:04;1.40;;;1.30;;
12165;SDS011;6146;48.128;11.476;2023-05-10T00:22:31;1.30;;;1.20;;
12165;SDS011;6146;48.128;11.476;2023-05-10T00:24:57;1.40;;;1.13;;
12165;SDS011;6146;48.128;11.476;2023-05-10T00:27:23;1.30;;;1.20;;
12165;SDS011;6146;48.128;11.476;2023-05-10T00:29:48;1.40;;;1.30;;
12165;SDS011;6146;48.128;11.476;2023-05-10T00:32:14;1.20;;;1.10;;
12165;SDS011;6146;48.128;11.476;2023-05-10T00:34:40;2.47;;;1.10;;
12165;SDS011;6146;48.128;11.476;2023-05-10T00:37:05;1.20;;;1.10;;
12165;SDS011;6146;48.128;11.476;2023-05-10T00:39:31;1.20;;;1.10;;
12165;SDS011;6146;48.128;11.476;2023-05-10T00:41:56;2.10;;;1.20;;
12165;SDS011;6146;48.128;11.476;2023-05-10T00:44:22;1.07;;;1.07;;
12165;SDS011;6146;48.128;11.476;2023-05-10T00:46:48;1.00;;;1.00;;
12165;SDS011;6146;48.128;11.476;2023-05-10T00:49:14;1.10;;;1.00;;
12165;SDS011;6146;48.128;11.476;2023-05-10T00:51:41;2.10;;;1.07;;
12165;SDS011;6146;48.128;11.476;2023-05-10T00:54:07;1.20;;;1.10;;
12165;SDS011;6146;48.128;11.476;2023-05-10T00:56:36;0.97;;;0.90;;
12165;SDS011;6146;48.128;11.476;2023-05-10T00:59:01;1.10;;;1.00;;
12165;SDS011;6146;48.128;11.476;2023-05-10T01:01:27;1.13;;;1.00;;
12165;SDS011;6146;48.128;11.476;2023-05-10T01:03:54;1.90;;;1.10;;
12165;SDS011;6146;48.128;11.476;2023-05-10T01:06:20;1.93;;;1.00;;
12165;SDS011;6146;48.128;11.476;2023-05-10T01:08:46;0.90;;;0.90;;
12165;SDS011;6146;48.128;11.476;2023-05-10T01:11:12;1.47;;;1.00;;
12165;SDS011;6146;48.128;11.476;2023-05-10T01:13:38;0.80;;;0.80;;
12165;SDS011;6146;48.128;11.476;2023-05-10T01:16:06;1.17;;;0.80;;
12165;SDS011;6146;48.128;11.476;2023-05-10T01:18:36;1.00;;;1.00;;
12165;SDS011;6146;48.128;11.476;2023-05-10T01:21:10;0.77;;;0.77;;
12165;SDS011;6146;48.128;11.476;2023-05-10T01:29:33;0.70;;;0.70;;
12165;SDS011;6146;48.128;11.476;2023-05-10T01:35:42;0.90;;;0.90;;
12165;SDS011;6146;48.128;11.476;2023-05-10T01:43:28;1.13;;;0.80;;
12165;SDS011;6146;48.128;11.476;2023-05-10T01:46:05;1.30;;;0.80;;
12165;SDS011;6146;48.128;11.476;2023-05-10T01:48:45;0.87;;;0.87;;
12165;SDS011;6146;48.128;11.476;2023-05-10T01:51:17;1.00;;;1.00;;
12165;SDS011;6146;48.128;11.476;2023-05-10T01:53:47;0.63;;;0.63;;
12165;SDS011;6146;48.128;11.476;2023-05-10T01:56:14;0.80;;;0.80;;
12165;SDS011;6146;48.128;11.476;2023-05-10T01:58:42;1.70;;;0.90;;
12165;SDS011;6146;48.128;11.476;2023-05-10T02:01:10;1.27;;;0.90;;
12165;SDS011;6146;48.128;11.476;2023-05-10T02:03:38;0.77;;;0.77;;
12165;SDS011;6146;48.128;11.476;2023-05-10T02:06:05;0.87;;;0.83;;
12165;SDS011;6146;48.128;11.476;2023-05-10T02:08:32;0.60;;;0.60;;
12165;SDS011;6146;48.128;11.476;2023-05-10T02:11:00;0.90;;;0.80;;
12165;SDS011;6146;48.128;11.476;2023-05-10T02:13:27;0.80;;;0.70;;
12165;SDS011;6146;48.128;11.476;2023-05-10T02:15:54;0.87;;;0.70;;
12165;SDS011;6146;48.128;11.476;2023-05-10T02:18:22;0.60;;;0.60;;
12165;SDS011;6146;48.128;11.476;2023-05-10T02:20:50;1.10;;;0.97;;
12165;SDS011;6146;48.128;11.476;2023-05-10T02:23:18;0.80;;;0.80;;
12165;SDS011;6146;48.128;11.476;2023-05-10T02:25:45;0.90;;;0.90;;
12165;SDS011;6146;48.128;11.476;2023-05-10T02:28:14;0.67;;;0.67;;
12165;SDS011;6146;48.128;11.476;2023-05-10T02:30:40;0.80;;;0.77;;
12165;SDS011;6146;48.128;11.476;2023-05-10T02:33:07;0.70;;;0.70;;
12165;SDS011;6146;48.128;11.476;2023-05-10T02:35:33;1.00;;;0.80;;
12165;SDS011;6146;48.128;11.476;2023-05-10T02:37:59;0.80;;;0.80;;
12165;SDS011;6146;48.128;11.476;2023-05-10T02:40:26;0.73;;;0.73;;
12165;SDS011;6146;48.128;11.476;2023-05-10T02:42:54;0.80;;;0.80;;
12165;SDS011;6146;48.128;11.476;2023-05-10T02:45:22;1.60;;;1.00;;
12165;SDS011;6146;48.128;11.476;2023-05-10T02:47:51;0.60;;;0.60;;
12165;SDS011;6146;48.128;11.476;2023-05-10T02:50:17;1.20;;;1.00;;
12165;SDS011;6146;48.128;11.476;2023-05-10T02:52:47;0.70;;;0.70;;
12165;SDS011;6146;48.128;11.476;2023-05-10T02:55:16;0.70;;;0.70;;
12165;SDS011;6146;48.128;11.476;2023-05-10T02:57:48;0.80;;;0.80;;
12165;SDS011;6146;48.128;11.476;2023-05-10T03:00:17;0.80;;;0.80;;
12165;SDS011;6146;48.128;11.476;2023-05-10T03:02:43;1.07;;;0.70;;
12165;SDS011;6146;48.128;11.476;2023-05-10T03:05:08;0.67;;;0.67;;
12165;SDS011;6146;48.128;11.476;2023-05-10T03:07:34;0.70;;;0.70;;
12165;SDS011;6146;48.128;11.476;2023-05-10T03:10:00;1.03;;;0.80;;
12165;SDS011;6146;48.128;11.476;2023-05-10T03:20:45;0.80;;;0.80;;
12165;SDS011;6146;48.128;11.476;2023-05-10T03:23:25;1.97;;;1.00;;
12165;SDS011;6146;48.128;11.476;2023-05-10T03:25:54;0.90;;;0.90;;
12165;SDS011;6146;48.128;11.476;2023-05-10T03:28:21;0.67;;;0.67;;
12165;SDS011;6146;48.128;11.476;2023-05-10T03:30:49;0.70;;;0.70;;
12165;SDS011;6146;48.128;11.476;2023-05-10T03:33:17;0.70;;;0.70;;
12165;SDS011;6146;48.128;11.476;2023-05-10T03:35:43;0.87;;;0.70;;
12165;SDS011;6146;48.128;11.476;2023-05-10T03:38:10;0.70;;;0.70;;
12165;SDS011;6146;48.128;11.476;2023-05-10T03:40:36;1.30;;;0.70;;
12165;SDS011;6146;48.128;11.476;2023-05-10T03:43:02;0.90;;;0.90;;
12165;SDS011;6146;48.128;11.476;2023-05-10T03:45:28;0.90;;;0.90;;
12165;SDS011;6146;48.128;11.476;2023-05-10T03:47:53;0.67;;;0.60;;
12165;SDS011;6146;48.128;11.476;2023-05-10T03:50:19;0.63;;;0.60;;
12165;SDS011;6146;48.128;11.476;2023-05-10T03:52:45;0.93;;;0.80;;
12165;SDS011;6146;48.128;11.476;2023-05-10T03:55:11;0.73;;;0.73;;
12165;SDS011;6146;48.128;11.476;2023-05-10T03:57:37;0.90;;;0.90;;
12165;SDS011;6146;48.128;11.476;2023-05-10T04:00:03;0.90;;;0.90;;
12165;SDS011;6146;48.128;11.476;2023-05-10T04:02:29;0.70;;;0.60;;
12165;SDS011;6146;48.128;11.476;2023-05-10T04:04:55;0.80;;;0.73;;
12165;SDS011;6146;48.128;11.476;2023-05-10T04:07:21;0.70;;;0.70;;
12165;SDS011;6146;48.128;11.476;2023-05-10T04:09:46;1.40;;;0.80;;
12165;SDS011;6146;48.128;11.476;2023-05-10T04:12:12;1.40;;;0.47;;
12165;SDS011;6146;48.128;11.476;2023-05-10T04:14:38;1.60;;;0.60;;
12165;SDS011;6146;48.128;11.476;2023-05-10T04:17:03;0.60;;;0.60;;
12165;SDS011;6146;48.128;11.476;2023-05-10T04:19:32;0.80;;;0.80;;
12165;SDS011;6146;48.128;11.476;2023-05-10T04:21:58;1.00;;;0.90;;
12165;SDS011;6146;48.128;11.476;2023-05-10T04:24:24;1.17;;;1.00;;
12165;SDS011;6146;48.128;11.476;2023-05-10T04:26:50;2.10;;;0.70;;
12165;SDS011;6146;48.128;11.476;2023-05-10T04:29:15;0.90;;;0.90;;
12165;SDS011;6146;48.128;11.476;2023-05-10T04:31:41;0.80;;;0.80;;
12165;SDS011;6146;48.128;11.476;2023-05-10T04:34:07;0.80;;;0.60;;
12165;SDS011;6146;48.128;11.476;2023-05-10T04:36:32;1.57;;;0.80;;
12165;SDS011;6146;48.128;11.476;2023-05-10T04:39:00;2.10;;;0.90;;
12165;SDS011;6146;48.128;11.476;2023-05-10T04:41:28;0.77;;;0.77;;
12165;SDS011;6146;48.128;11.476;2023-05-10T04:43:54;0.73;;;0.70;;
12165;SDS011;6146;48.128;11.476;2023-05-10T04:46:20;0.60;;;0.60;;
12165;SDS011;6146;48.128;11.476;2023-05-10T04:48:45;0.70;;;0.70;;
12165;SDS011;6146;48.128;11.476;2023-05-10T04:51:11;0.50;;;0.50;;
12165;SDS011;6146;48.128;11.476;2023-05-10T04:53:37;0.70;;;0.70;;
12165;SDS011;6146;48.128;11.476;2023-05-10T04:56:03;0.50;;;0.50;;
12165;SDS011;6146;48.128;11.476;2023-05-10T04:58:28;1.37;;;0.60;;
12165;SDS011;6146;48.128;11.476;2023-05-10T05:00:54;0.70;;;0.70;;
12165;SDS011;6146;48.128;11.476;2023-05-10T05:03:20;1.07;;;0.67;;
12165;SDS011;6146;48.128;11.476;2023-05-10T05:05:45;0.77;;;0.77;;
12165;SDS011;6146;48.128;11.476;2023-05-10T05:08:11;0.87;;;0.70;;
12165;SDS011;6146;48.128;11.476;2023-05-10T05:10:36;1.97;;;0.80;;
12165;SDS011;6146;48.128;11.476;2023-05-10T05:13:02;0.60;;;0.60;;
12165;SDS011;6146;48.128;11.476;2023-05-10T05:15:27;0.80;;;0.60;;
12165;SDS011;6146;48.128;11.476;2023-05-10T05:17:53;1.13;;;0.63;;
12165;SDS011;6146;48.128;11.476;2023-05-10T05:20:19;1.67;;;0.70;;
12165;SDS011;6146;48.128;11.476;2023-05-10T05:22:44;0.80;;;0.50;;
12165;SDS011;6146;48.128;11.476;2023-05-10T05:25:10;0.77;;;0.57;;
12165;SDS011;6146;48.128;11.476;2023-05-10T05:27:36;0.40;;;0.40;;
12165;SDS011;6146;48.128;11.476;2023-05-10T05:30:02;0.50;;;0.50;;
12165;SDS011;6146;48.128;11.476;2023-05-10T05:32:29;0.50;;;0.50;;
12165;SDS011;6146;48.128;11.476;2023-05-10T05:34:55;1.00;;;0.50;;
12165;SDS011;6146;48.128;11.476;2023-05-10T05:37:20;2.70;;;0.60;;
12165;SDS011;6146;48.128;11.476;2023-05-10T05:39:47;0.83;;;0.50;;
12165;SDS011;6146;48.128;11.476;2023-05-10T05:42:13;0.43;;;0.43;;
12165;SDS011;6146;48.128;11.476;2023-05-10T05:44:40;3.27;;;0.80;;
12165;SDS011;6146;48.128;11.476;2023-05-10T05:47:06;0.50;;;0.50;;
12165;SDS011;6146;48.128;11.476;2023-05-10T05:49:32;0.93;;;0.80;;
12165;SDS011;6146;48.128;11.476;2023-05-10T05:51:58;0.70;;;0.70;;
12165;SDS011;6146;48.128;11.476;2023-05-10T05:54:25;0.80;;;0.80;;
12165;SDS011;6146;48.128;11.476;2023-05-10T05:56:53;1.10;;;1.00;;
12165;SDS011;6146;48.128;11.476;2023-05-10T05:59:22;1.27;;;0.70;;
12165;SDS011;6146;48.128;11.476;2023-05-10T06:01:48;0.60;;;0.60;;
12165;SDS011;6146;48.128;11.476;2023-05-10T06:04:14;0.60;;;0.60;;
12165;SDS011;6146;48.128;11.476;2023-05-10T06:06:39;0.50;;;0.50;;
12165;SDS011;6146;48.128;11.476;2023-05-10T06:09:05;1.50;;;0.60;;
12165;SDS011;6146;48.128;11.476;2023-05-10T06:11:31;1.93;;;0.83;;
12165;SDS011;6146;48.128;11.476;2023-05-10T06:13:59;0.93;;;0.60;;
12165;SDS011;6146;48.128;11.476;2023-05-10T06:16:26;0.77;;;0.77;;
12165;SDS011;6146;48.128;11.476;2023-05-10T06:18:52;1.57;;;0.80;;
12165;SDS011;6146;48.128;11.476;2023-05-10T06:21:17;1.70;;;0.70;;
12165;SDS011;6146;48.128;11.476;2023-05-10T06:23:43;0.47;;;0.43;;
12165;SDS011;6146;48.128;11.476;2023-05-10T06:26:09;0.80;;;0.73;;
12165;SDS011;6146;48.128;11.476;2023-05-10T06:28:34;1.73;;;1.03;;
12165;SDS011;6146;48.128;11.476;2023-05-10T06:31:02;0.80;;;0.80;;
12165;SDS011;6146;48.128;11.476;2023-05-10T06:33:28;0.90;;;0.90;;
12165;SDS011;6146;48.128;11.476;2023-05-10T06:35:54;0.83;;;0.80;;
12165;SDS011;6146;48.128;11.476;2023-05-10T06:38:19;1.10;;;1.00;;
12165;SDS011;6146;48.128;11.476;2023-05-10T06:40:45;0.90;;;0.90;;
12165;SDS011;6146;48.128;11.476;2023-05-10T06:43:10;1.03;;;1.00;;
12165;SDS011;6146;48.128;11.476;2023-05-10T06:45:36;0.77;;;0.77;;
12165;SDS011;6146;48.128;11.476;2023-05-10T06:48:01;0.90;;;0.90;;
12165;SDS011;6146;48.128;11.476;2023-05-10T06:50:27;0.93;;;0.90;;
12165;SDS011;6146;48.128;11.476;2023-05-10T06:52:53;5.50;;;1.40;;
12165;SDS011;6146;48.128;11.476;2023-05-10T06:55:19;1.53;;;1.13;;
12165;SDS011;6146;48.128;11.476;2023-05-10T06:57:44;1.60;;;1.07;;
12165;SDS011;6146;48.128;11.476;2023-05-10T07:00:10;2.93;;;1.20;;
12165;SDS011;6146;48.128;11.476;2023-05-10T07:02:36;1.43;;;1.20;;
12165;SDS011;6146;48.128;11.476;2023-05-10T07:05:01;1.37;;;1.00;;
12165;SDS011;6146;48.128;11.476;2023-05-10T07:07:27;1.37;;;1.27;;
12165;SDS011;6146;48.128;11.476;2023-05-10T07:09:53;1.00;;;1.00;;
12165;SDS011;6146;48.128;11.476;2023-05-10T07:12:19;0.93;;;0.93;;
12165;SDS011;6146;48.128;11.476;2023-05-10T07:14:45;0.83;;;0.83;;
12165;SDS011;6146;48.128;11.476;2023-05-10T07:17:11;1.43;;;0.90;;
12165;SDS011;6146;48.128;11.476;2023-05-10T07:19:37;2.60;;;1.23;;
12165;SDS011;6146;48.128;11.476;2023-05-10T07:22:02;1.00;;;0.90;;
12165;SDS011;6146;48.128;11.476;2023-05-10T07:24:28;1.07;;;0.97;;
12165;SDS011;6146;48.128;11.476;2023-05-10T07:26:53;2.03;;;1.00;;
12165;SDS011;6146;48.128;11.476;2023-05-10T07:29:19;0.93;;;0.93;;
12165;SDS011;6146;48.128;11.476;2023-05-10T07:31:44;1.23;;;1.13;;
12165;SDS011;6146;48.128;11.476;2023-05-10T07:34:10;1.00;;;0.90;;
12165;SDS011;6146;48.128;11.476;2023-05-10T07:36:35;3.43;;;1.20;;
12165;SDS011;6146;48.128;11.476;2023-05-10T07:39:01;1.30;;;1.20;;
12165;SDS011;6146;48.128;11.476;2023-05-10T07:41:27;2.40;;;1.00;;
12165;SDS011;6146;48.128;11.476;2023-05-10T07:43:52;1.17;;;1.07;;
12165;SDS011;6146;48.128;11.476;2023-05-10T07:46:18;2.00;;;1.10;;
12165;SDS011;6146;48.128;11.476;2023-05-10T07:48:44;1.00;;;1.00;;
12165;SDS011;6146;48.128;11.476;2023-05-10T07:51:10;2.20;;;1.03;;
12165;SDS011;6146;48.128;11.476;2023-05-10T07:53:36;2.67;;;1.00;;
12165;SDS011;6146;48.128;11.476;2023-05-10T07:56:19;1.33;;;1.00;;
12165;SDS011;6146;48.128;11.476;2023-05-10T07:58:54;2.20;;;1.00;;
12165;SDS011;6146;48.128;11.476;2023-05-10T08:01:20;1.10;;;1.00;;
12165;SDS011;6146;48.128;11.476;2023-05-10T08:03:46;1.10;;;1.00;;
12165;SDS011;6146;48.128;11.476;2023-05-10T08:06:12;1.50;;;1.00;;
12165;SDS011;6146;48.128;11.476;2023-05-10T08:08:38;0.90;;;0.87;;
12165;SDS011;6146;48.128;11.476;2023-05-10T08:11:04;1.13;;;1.10;;
12165;SDS011;6146;48.128;11.476;2023-05-10T08:13:30;1.10;;;1.00;;
12165;SDS011;6146;48.128;11.476;2023-05-10T08:15:56;1.73;;;1.20;;
12165;SDS011;6146;48.128;11.476;2023-05-10T08:18:22;1.43;;;0.80;;
12165;SDS011;6146;48.128;11.476;2023-05-10T08:20:47;2.00;;;1.53;;
12165;SDS011;6146;48.128;11.476;2023-05-10T08:23:13;3.23;;;1.30;;
12165;SDS011;6146;48.128;11.476;2023-05-10T08:25:38;0.90;;;0.90;;
12165;SDS011;6146;48.128;11.476;2023-05-10T08:28:04;1.17;;;1.07;;
12165;SDS011;6146;48.128;11.476;2023-05-10T08:30:30;1.20;;;1.10;;
12165;SDS011;6146;48.128;11.476;2023-05-10T08:32:56;0.87;;;0.87;;
12165;SDS011;6146;48.128;11.476;2023-05-10T08:35:21;2.13;;;1.03;;
12165;SDS011;6146;48.128;11.476;2023-05-10T08:37:47;2.00;;;0.90;;
12165;SDS011;6146;48.128;11.476;2023-05-10T08:40:12;0.90;;;0.90;;
12165;SDS011;6146;48.128;11.476;2023-05-10T08:42:39;2.37;;;1.00;;
12165;SDS011;6146;48.128;11.476;2023-05-10T08:45:08;0.90;;;0.90;;
12165;SDS011;6146;48.128;11.476;2023-05-10T08:47:36;1.67;;;1.10;;
12165;SDS011;6146;48.128;11.476;2023-05-10T08:50:02;1.57;;;1.00;;
12165;SDS011;6146;48.128;11.476;2023-05-10T08:52:28;2.00;;;0.90;;
12165;SDS011;6146;48.128;11.476;2023-05-10T08:54:56;1.60;;;0.80;;
12165;SDS011;6146;48.128;11.476;2023-05-10T08:57:21;0.80;;;0.80;;
12165;SDS011;6146;48.128;11.476;2023-05-10T08:59:47;1.10;;;1.00;;
12165;SDS011;6146;48.128;11.476;2023-05-10T09:02:13;0.80;;;0.80;;
12165;SDS011;6146;48.128;11.476;2023-05-10T09:04:39;0.63;;;0.53;;
12165;SDS011;6146;48.128;11.476;2023-05-10T09:07:06;0.97;;;0.83;;
12165;SDS011;6146;48.128;11.476;2023-05-10T09:09:32;0.93;;;0.70;;
12165;SDS011;6146;48.128;11.476;2023-05-10T09:11:58;0.73;;;0.70;;
12165;SDS011;6146;48.128;11.476;2023-05-10T09:14:24;2.27;;;0.70;;
12165;SDS011;6146;48.128;11.476;2023-05-10T09:16:50;0.77;;;0.70;;
12165;SDS011;6146;48.128;11.476;2023-05-10T09:19:16;1.10;;;0.90;;
12165;SDS011;6146;48.128;11.476;2023-05-10T09:21:42;1.33;;;0.70;;
12165;SDS011;6146;48.128;11.476;2023-05-10T09:24:08;1.33;;;0.73;;
12165;SDS011;6146;48.128;11.476;2023-05-10T09:26:34;0.87;;;0.87;;
12165;SDS011;6146;48.128;11.476;2023-05-10T09:29:01;0.90;;;0.90;;
12165;SDS011;6146;48.128;11.476;2023-05-10T09:34:15;1.10;;;1.00;;
12165;SDS011;6146;48.128;11.476;2023-05-10T09:36:50;1.17;;;1.00;;
12165;SDS011;6146;48.128;11.476;2023-05-10T09:39:16;1.33;;;1.00;;
12165;SDS011;6146;48.128;11.476;2023-05-10T09:41:42;1.07;;;0.90;;
12165;SDS011;6146;48.128;11.476;2023-05-10T09:44:08;0.80;;;0.80;;
12165;SDS011;6146;48.128;11.476;2023-05-10T09:46:34;0.80;;;0.80;;
12165;SDS011;6146;48.128;11.476;2023-05-10T09:49:01;1.80;;;1.00;;
12165;SDS011;6146;48.128;11.476;2023-05-10T09:51:26;1.80;;;0.80;;
12165;SDS011;6146;48.128;11.476;2023-05-10T09:54:09;1.03;;;0.93;;
12165;SDS011;6146;48.128;11.476;2023-05-10T09:56:38;0.80;;;0.80;;
12165;SDS011;6146;48.128;11.476;2023-05-10T09:59:05;1.13;;;0.80;;
12165;SDS011;6146;48.128;11.476;2023-05-10T10:01:36;1.53;;;1.27;;
12165;SDS011;6146;48.128;11.476;2023-05-10T10:04:05;1.30;;;1.20;;
12165;SDS011;6146;48.128;11.476;2023-05-10T10:06:38;2.57;;;1.93;;
12165;SDS011;6146;48.128;11.476;2023-05-10T10:09:08;3.93;;;3.03;;
12165;SDS011;6146;48.128;11.476;2023-05-10T10:11:35;8.27;;;6.70;;
12165;SDS011;6146;48.128;11.476;2023-05-10T10:14:02;2.60;;;2.27;;
12165;SDS011;6146;48.128;11.476;2023-05-10T10:16:30;1.47;;;1.20;;
12165;SDS011;6146;48.128;11.476;2023-05-10T10:18:57;1.43;;;1.20;;
12165;SDS011;6146;48.128;11.476;2023-05-10T10:21:23;2.00;;;1.50;;
12165;SDS011;6146;48.128;11.476;2023-05-10T10:23:49;0.80;;;0.80;;
12165;SDS011;6146;48.128;11.476;2023-05-10T10:26:15;0.93;;;0.93;;
12165;SDS011;6146;48.128;11.476;2023-05-10T10:31:27;2.13;;;1.93;;
12165;SDS011;6146;48.128;11.476;2023-05-10T10:34:03;2.47;;;1.77;;
12165;SDS011;6146;48.128;11.476;2023-05-10T10:36:57;2.07;;;1.87;;
12165;SDS011;6146;48.128;11.476;2023-05-10T10:39:23;1.47;;;1.37;;
12165;SDS011;6146;48.128;11.476;2023-05-10T10:41:51;0.90;;;0.80;;
12165;SDS011;6146;48.128;11.476;2023-05-10T10:44:24;1.43;;;1.10;;
12165;SDS011;6146;48.128;11.476;2023-05-10T10:57:52;1.77;;;1.40;;
12165;SDS011;6146;48.128;11.476;2023-05-10T11:08:02;1.90;;;1.00;;
12165;SDS011;6146;48.128;11.476;2023-05-10T11:10:35;0.97;;;0.97;;
12165;SDS011;6146;48.128;11.476;2023-05-10T11:13:01;1.60;;;1.43;;
12165;SDS011;6146;48.128;11.476;2023-05-10T11:15:32;2.63;;;1.43;;
12165;SDS011;6146;48.128;11.476;2023-05-10T11:17:59;4.40;;;2.17;;
12165;SDS011;6146;48.128;11.476;2023-05-10T11:20:40;3.00;;;2.10;;
12165;SDS011;6146;48.128;11.476;2023-05-10T11:23:13;3.20;;;1.77;;
12165;SDS011;6146;48.128;11.476;2023-05-10T11:25:43;1.80;;;1.33;;
12165;SDS011;6146;48.128;11.476;2023-05-10T11:28:10;2.00;;;1.70;;
12165;SDS011;6146;48.128;11.476;2023-05-10T11:30:40;8.90;;;2.30;;
12165;SDS011;6146;48.128;11.476;2023-05-10T11:33:08;4.13;;;3.00;;
12165;SDS011;6146;48.128;11.476;2023-05-10T11:35:40;2.63;;;1.53;;
12165;SDS011;6146;48.128;11.476;2023-05-10T11:38:06;2.13;;;1.40;;
12165;SDS011;6146;48.128;11.476;2023-05-10T11:40:33;1.60;;;1.30;;
12165;SDS011;6146;48.128;11.476;2023-05-10T11:43:02;3.30;;;1.73;;
12165;SDS011;6146;48.128;11.476;2023-05-10T11:45:28;1.03;;;1.00;;
12165;SDS011;6146;48.128;11.476;2023-05-10T11:47:57;1.63;;;1.10;;
12165;SDS011;6146;48.128;11.476;2023-05-10T11:50:23;1.10;;;1.00;;
12165;SDS011;6146;48.128;11.476;2023-05-10T11:52:54;3.37;;;1.20;;
12165;SDS011;6146;48.128;11.476;2023-05-10T11:55:21;4.63;;;1.97;;
12165;SDS011;6146;48.128;11.476;2023-05-10T11:57:46;1.67;;;1.50;;
12165;SDS011;6146;48.128;11.476;2023-05-10T12:00:13;2.00;;;1.70;;
12165;SDS011;6146;48.128;11.476;2023-05-10T12:02:39;1.73;;;1.63;;
12165;SDS011;6146;48.128;11.476;2023-05-10T12:05:05;1.80;;;1.57;;
12165;SDS011;6146;48.128;11.476;2023-05-10T12:07:31;1.93;;;1.70;;
12165;SDS011;6146;48.128;11.476;2023-05-10T12:10:04;3.17;;;2.20;;
12165;SDS011;6146;48.128;11.476;2023-05-10T12:12:37;4.67;;;3.33;;
12165;SDS011;6146;48.128;11.476;2023-05-10T12:15:03;3.70;;;2.80;;
12165;SDS011;6146;48.128;11.476;2023-05-10T12:17:29;3.83;;;3.00;;
12165;SDS011;6146;48.128;11.476;2023-05-10T12:19:58;3.10;;;2.30;;
12165;SDS011;6146;48.128;11.476;2023-05-10T12:22:38;2.80;;;1.70;;
12165;SDS011;6146;48.128;11.476;2023-05-10T12:25:04;2.00;;;1.70;;
12165;SDS011;6146;48.128;11.476;2023-05-10T12:27:33;1.83;;;1.60;;
12165;SDS011;6146;48.128;11.476;2023-05-10T12:29:59;2.70;;;2.20;;
12165;SDS011;6146;48.128;11.476;2023-05-10T12:32:41;4.27;;;2.73;;
12165;SDS011;6146;48.128;11.476;2023-05-10T12:35:09;3.70;;;2.00;;
12165;SDS011;6146;48.128;11.476;2023-05-10T12:37:35;3.33;;;1.63;;
12165;SDS011;6146;48.128;11.476;2023-05-10T12:40:05;3.27;;;2.30;;
12165;SDS011;6146;48.128;11.476;2023-05-10T12:42:33;2.83;;;2.00;;
12165;SDS011;6146;48.128;11.476;2023-05-10T12:44:59;2.50;;;1.87;;
12165;SDS011;6146;48.128;11.476;2023-05-10T12:47:24;2.00;;;1.60;;
12165;SDS011;6146;48.128;11.476;2023-05-10T12:49:50;2.97;;;2.10;;
12165;SDS011;6146;48.128;11.476;2023-05-10T12:52:16;2.27;;;1.60;;
12165;SDS011;6146;48.128;11.476;2023-05-10T12:54:41;3.23;;;1.57;;
12165;SDS011;6146;48.128;11.476;2023-05-10T12:57:07;1.80;;;1.70;;
12165;SDS011;6146;48.128;11.476;2023-05-10T12:59:33;3.43;;;1.70;;
12165;SDS011;6146;48.128;11.476;2023-05-10T13:01:58;2.40;;;1.70;;
12165;SDS011;6146;48.128;11.476;2023-05-10T13:04:24;3.13;;;1.60;;
12165;SDS011;6146;48.128;11.476;2023-05-10T13:06:49;3.03;;;1.73;;
12165;SDS011;6146;48.128;11.476;2023-05-10T13:09:15;3.43;;;1.43;;
12165;SDS011;6146;48.128;11.476;2023-05-10T13:11:40;1.40;;;1.30;;
12165;SDS011;6146;48.128;11.476;2023-05-10T13:14:06;1.90;;;1.37;;
12165;SDS011;6146;48.128;11.476;2023-05-10T13:16:32;1.73;;;1.30;;
12165;SDS011;6146;48.128;11.476;2023-05-10T13:18:57;4.03;;;1.47;;
12165;SDS011;6146;48.128;11.476;2023-05-10T13:21:23;1.30;;;1.20;;
12165;SDS011;6146;48.128;11.476;2023-05-10T13:23:50;1.87;;;1.37;;
12165;SDS011;6146;48.128;11.476;2023-05-10T13:26:15;4.03;;;1.70;;
12165;SDS011;6146;48.128;11.476;2023-05-10T13:28:41;2.03;;;1.50;;
12165;SDS011;6146;48.128;11.476;2023-05-10T13:31:07;1.97;;;1.30;;
12165;SDS011;6146;48.128;11.476;2023-05-10T13:33:32;2.13;;;1.40;;
12165;SDS011;6146;48.128;11.476;2023-05-10T13:35:58;3.93;;;1.80;;
12165;SDS011;6146;48.128;11.476;2023-05-10T13:38:23;2.80;;;1.67;;
12165;SDS011;6146;48.128;11.476;2023-05-10T13:40:49;1.60;;;1.30;;
12165;SDS011;6146;48.128;11.476;2023-05-10T13:43:17;1.50;;;1.40;;
12165;SDS011;6146;48.128;11.476;2023-05-10T13:45:43;3.10;;;1.57;;
12165;SDS011;6146;48.128;11.476;2023-05-10T13:48:09;1.80;;;1.50;;
12165;SDS011;6146;48.128;11.476;2023-05-10T13:50:34;2.10;;;1.20;;
12165;SDS011;6146;48.128;11.476;2023-05-10T13:53:00;1.60;;;1.47;;
12165;SDS011;6146;48.128;11.476;2023-05-10T13:55:25;2.23;;;1.30;;
12165;SDS011;6146;48.128;11.476;2023-05-10T13:57:51;1.53;;;1.30;;
12165;SDS011;6146;48.128;11.476;2023-05-10T14:00:17;1.47;;;1.30;;
12165;SDS011;6146;48.128;11.476;2023-05-10T14:02:42;1.80;;;1.53;;
12165;SDS011;6146;48.128;11.476;2023-05-10T14:05:08;1.53;;;1.17;;
12165;SDS011;6146;48.128;11.476;2023-05-10T14:07:34;2.40;;;1.30;;
12165;SDS011;6146;48.128;11.476;2023-05-10T14:09:59;2.20;;;1.37;;
12165;SDS011;6146;48.128;11.476;2023-05-10T14:12:25;1.80;;;1.30;;
12165;SDS011;6146;48.128;11.476;2023-05-10T14:14:51;3.10;;;1.43;;
12165;SDS011;6146;48.128;11.476;2023-05-10T14:17:17;1.70;;;1.30;;
12165;SDS011;6146;48.128;11.476;2023-05-10T14:19:42;3.30;;;1.60;;
12165;SDS011;6146;48.128;11.476;2023-05-10T14:22:08;1.73;;;1.50;;
12165;SDS011;6146;48.128;11.476;2023-05-10T14:24:33;1.40;;;1.30;;
12165;SDS011;6146;48.128;11.476;2023-05-10T14:26:59;1.30;;;1.10;;
12165;SDS011;6146;48.128;11.476;2023-05-10T14:29:25;1.70;;;1.20;;
12165;SDS011;6146;48.128;11.476;2023-05-10T14:31:51;1.93;;;0.90;;
12165;SDS011;6146;48.128;11.476;2023-05-10T14:34:16;2.83;;;1.30;;
12165;SDS011;6146;48.128;11.476;2023-05-10T14:36:42;1.73;;;1.07;;
12165;SDS011;6146;48.128;11.476;2023-05-10T14:39:07;1.53;;;1.00;;
12165;SDS011;6146;48.128;11.476;2023-05-10T14:41:34;3.20;;;1.90;;
12165;SDS011;6146;48.128;11.476;2023-05-10T14:44:00;2.17;;;1.60;;
12165;SDS011;6146;48.128;11.476;2023-05-10T14:46:28;1.37;;;0.90;;
12165;SDS011;6146;48.128;11.476;2023-05-10T14:48:54;3.37;;;2.70;;
12165;SDS011;6146;48.128;11.476;2023-05-10T14:51:20;1.93;;;1.30;;
12165;SDS011;6146;48.128;11.476;2023-05-10T14:53:47;3.43;;;1.20;;
12165;SDS011;6146;48.128;11.476;2023-05-10T14:56:13;1.60;;;1.40;;
12165;SDS011;6146;48.128;11.476;2023-05-10T14:58:39;2.40;;;1.50;;
12165;SDS011;6146;48.128;11.476;2023-05-10T15:01:04;1.77;;;1.57;;
12165;SDS011;6146;48.128;11.476;2023-05-10T15:03:30;1.73;;;1.40;;
12165;SDS011;6146;48.128;11.476;2023-05-10T15:05:55;1.53;;;1.43;;
12165;SDS011;6146;48.128;11.476;2023-05-10T15:08:22;2.37;;;1.30;;
12165;SDS011;6146;48.128;11.476;2023-05-10T15:10:49;2.97;;;1.23;;
12165;SDS011;6146;48.128;11.476;2023-05-10T15:13:15;2.00;;;1.30;;
12165;SDS011;6146;48.128;11.476;2023-05-10T15:15:41;2.00;;;1.60;;
12165;SDS011;6146;48.128;11.476;2023-05-10T15:18:06;3.20;;;1.67;;
12165;SDS011;6146;48.128;11.476;2023-05-10T15:20:33;2.80;;;1.37;;
12165;SDS011;6146;48.128;11.476;2023-05-10T15:22:59;3.90;;;1.60;;
12165;SDS011;6146;48.128;11.476;2023-05-10T15:25:25;1.80;;;1.33;;
12165;SDS011;6146;48.128;11.476;2023-05-10T15:27:52;5.27;;;2.97;;
12165;SDS011;6146;48.128;11.476;2023-05-10T15:30:18;2.47;;;2.27;;
12165;SDS011;6146;48.128;11.476;2023-05-10T15:32:43;2.03;;;1.73;;